createdAt,value
2022-11-10T00:00:02.452Z,0.00
2022-11-10T00:01:02.313Z,0.00
2022-11-10T00:02:02.520Z,0.00
2022-11-10T00:03:02.602Z,0.00
2022-11-10T00:04:02.571Z,0.00
2022-11-10T00:05:02.482Z,0.00
2022-11-10T00:06:02.346Z,0.00
2022-11-10T00:07:02.412Z,0.00
2022-11-10T00:08:02.216Z,0.00
2022-11-10T00:09:02.839Z,0.00
2022-11-10T00:10:02.851Z,0.00
2022-11-10T00:11:02.543Z,0.00
2022-11-10T00:12:02.453Z,0.00
2022-11-10T00:13:02.585Z,0.00
2022-11-10T00:14:02.563Z,0.00
2022-11-10T00:15:03.014Z,0.00
2022-11-10T00:16:02.909Z,0.00
2022-11-10T00:17:02.925Z,0.00
2022-11-10T00:18:03.089Z,0.00
2022-11-10T00:19:03.523Z,0.00
2022-11-10T00:20:03.224Z,0.00
2022-11-10T00:21:03.105Z,0.00
2022-11-10T00:22:03.178Z,0.00
2022-11-10T00:23:03.560Z,0.00
2022-11-10T00:24:03.264Z,0.00
2022-11-10T00:25:03.184Z,0.00
2022-11-10T00:26:03.514Z,0.00
2022-11-10T00:27:02.378Z,0.00
2022-11-10T00:28:02.618Z,0.00
2022-11-10T00:29:02.513Z,0.00
2022-11-10T00:30:02.849Z,0.00
2022-11-10T00:31:02.558Z,0.00
2022-11-10T00:32:03.173Z,0.00
2022-11-10T00:33:03.386Z,0.00
2022-11-10T00:34:03.278Z,0.00
2022-11-10T00:35:03.101Z,0.00
2022-11-10T00:36:03.126Z,0.00
2022-11-10T00:37:02.780Z,0.00
2022-11-10T00:38:02.984Z,0.00
2022-11-10T00:39:03.238Z,0.00
2022-11-10T00:40:02.913Z,0.00
2022-11-10T00:41:03.099Z,0.00
2022-11-10T00:42:03.435Z,0.00
2022-11-10T00:43:03.225Z,0.00
2022-11-10T00:44:03.652Z,0.00
2022-11-10T00:45:03.294Z,0.00
2022-11-10T00:46:03.636Z,0.00
2022-11-10T00:47:03.515Z,0.00
2022-11-10T00:48:03.573Z,0.00
2022-11-10T00:49:03.576Z,0.00
2022-11-10T00:50:03.171Z,0.00
2022-11-10T00:51:03.358Z,0.00
2022-11-10T00:52:03.266Z,0.00
2022-11-10T00:53:03.201Z,0.00
2022-11-10T00:54:03.362Z,0.00
2022-11-10T00:55:03.224Z,0.00
2022-11-10T00:56:03.412Z,0.00
2022-11-10T00:57:03.079Z,0.00
2022-11-10T00:58:03.382Z,0.00
2022-11-10T00:59:02.950Z,0.00
2022-11-10T01:00:02.986Z,0.00
2022-11-10T01:01:03.157Z,0.00
2022-11-10T01:02:02.766Z,0.00
2022-11-10T01:03:02.944Z,0.00
2022-11-10T01:04:02.994Z,0.00
2022-11-10T01:05:02.376Z,0.00
2022-11-10T01:06:02.328Z,0.00
2022-11-10T01:07:02.996Z,0.00
2022-11-10T01:08:02.895Z,0.00
2022-11-10T01:09:02.984Z,0.00
2022-11-10T01:10:02.930Z,0.00
2022-11-10T01:11:02.952Z,0.00
2022-11-10T01:12:02.553Z,0.00
2022-11-10T01:13:02.828Z,0.00
2022-11-10T01:14:02.711Z,0.00
2022-11-10T01:15:02.530Z,0.00
2022-11-10T01:16:02.583Z,0.00
2022-11-10T01:17:02.941Z,0.00
2022-11-10T01:18:02.778Z,0.00
2022-11-10T01:19:03.286Z,0.00
2022-11-10T01:20:03.322Z,0.00
2022-11-10T01:21:02.932Z,0.00
2022-11-10T01:22:02.097Z,0.00
2022-11-10T01:23:02.230Z,0.00
2022-11-10T01:24:02.055Z,0.00
2022-11-10T01:25:01.909Z,0.00
2022-11-10T01:26:02.340Z,0.00
2022-11-10T01:27:02.075Z,0.00
2022-11-10T01:28:02.128Z,0.00
2022-11-10T01:29:02.031Z,0.00
2022-11-10T01:30:01.853Z,0.00
2022-11-10T01:31:01.876Z,0.00
2022-11-10T01:32:02.961Z,0.00
2022-11-10T01:33:02.907Z,0.00
2022-11-10T01:34:02.424Z,0.00
2022-11-10T01:35:02.564Z,0.00
2022-11-10T01:36:02.566Z,0.00
2022-11-10T01:37:02.974Z,0.00
2022-11-10T01:38:02.799Z,0.00
2022-11-10T01:39:03.382Z,0.00
2022-11-10T01:40:03.059Z,0.00
2022-11-10T01:41:02.992Z,0.00
2022-11-10T01:42:02.222Z,0.00
2022-11-10T01:43:02.427Z,0.00
2022-11-10T01:44:02.713Z,0.00
2022-11-10T01:45:02.891Z,0.00
2022-11-10T01:46:02.873Z,0.00
2022-11-10T01:47:01.946Z,0.00
2022-11-10T01:48:02.077Z,0.00
2022-11-10T01:49:01.986Z,0.00
2022-11-10T01:50:02.116Z,0.00
2022-11-10T01:51:02.053Z,0.00
2022-11-10T01:52:02.588Z,0.00
2022-11-10T01:53:02.445Z,0.00
2022-11-10T01:54:02.667Z,0.00
2022-11-10T01:55:02.703Z,0.00
2022-11-10T01:56:02.581Z,0.00
2022-11-10T01:57:02.880Z,0.00
2022-11-10T01:58:03.061Z,0.00
2022-11-10T01:59:02.768Z,0.00
2022-11-10T02:00:02.789Z,0.00
2022-11-10T02:01:02.663Z,0.00
2022-11-10T02:02:02.695Z,0.00
2022-11-10T02:03:02.403Z,0.00
2022-11-10T02:04:02.277Z,0.00
2022-11-10T02:05:02.688Z,0.00
2022-11-10T02:06:02.453Z,0.00
2022-11-10T02:07:02.543Z,0.00
2022-11-10T02:08:02.492Z,0.00
2022-11-10T02:09:02.687Z,0.00
2022-11-10T02:10:02.646Z,0.00
2022-11-10T02:11:02.508Z,0.00
2022-11-10T02:12:02.539Z,0.00
2022-11-10T02:13:02.822Z,0.00
2022-11-10T02:14:02.761Z,0.00
2022-11-10T02:15:02.975Z,0.00
2022-11-10T02:16:02.823Z,0.00
2022-11-10T02:17:01.853Z,0.00
2022-11-10T02:18:01.968Z,0.00
2022-11-10T02:19:02.339Z,0.00
2022-11-10T02:20:02.313Z,0.00
2022-11-10T02:21:02.344Z,0.00
2022-11-10T02:22:02.793Z,0.00
2022-11-10T02:23:02.339Z,0.00
2022-11-10T02:24:02.845Z,0.00
2022-11-10T02:25:02.705Z,0.00
2022-11-10T02:26:02.532Z,0.00
2022-11-10T02:27:02.511Z,0.00
2022-11-10T02:28:03.019Z,0.00
2022-11-10T02:29:03.066Z,0.00
2022-11-10T02:30:03.132Z,0.00
2022-11-10T02:31:02.540Z,0.00
2022-11-10T02:32:02.404Z,0.00
2022-11-10T02:33:02.310Z,0.00
2022-11-10T02:34:02.221Z,0.00
2022-11-10T02:35:02.201Z,0.00
2022-11-10T02:36:02.497Z,0.00
2022-11-10T02:37:02.251Z,0.00
2022-11-10T02:38:02.178Z,0.00
2022-11-10T02:39:02.536Z,0.00
2022-11-10T02:40:02.256Z,0.00
2022-11-10T02:41:02.126Z,0.00
2022-11-10T02:42:02.477Z,0.00
2022-11-10T02:43:02.688Z,0.00
2022-11-10T02:44:02.323Z,0.00
2022-11-10T02:45:02.212Z,0.00
2022-11-10T02:46:02.083Z,0.00
2022-11-10T02:47:01.702Z,0.00
2022-11-10T02:48:01.905Z,0.00
2022-11-10T02:49:02.122Z,0.00
2022-11-10T02:50:02.074Z,0.00
2022-11-10T02:51:02.154Z,0.00
2022-11-10T02:52:02.310Z,0.00
2022-11-10T02:53:02.206Z,0.00
2022-11-10T02:54:02.669Z,0.00
2022-11-10T02:55:02.395Z,0.00
2022-11-10T02:56:02.130Z,0.00
2022-11-10T02:57:02.592Z,0.00
2022-11-10T02:58:03.027Z,0.00
2022-11-10T02:59:02.895Z,0.00
2022-11-10T03:00:02.549Z,0.00
2022-11-10T03:01:02.725Z,0.00
2022-11-10T03:02:03.052Z,0.00
2022-11-10T03:03:02.803Z,0.00
2022-11-10T03:04:03.247Z,0.00
2022-11-10T03:05:03.166Z,0.00
2022-11-10T03:06:03.117Z,0.00
2022-11-10T03:07:03.112Z,0.00
2022-11-10T03:08:03.616Z,0.00
2022-11-10T03:09:03.299Z,0.00
2022-11-10T03:10:03.234Z,0.00
2022-11-10T03:11:03.491Z,0.00
2022-11-10T03:12:03.318Z,0.00
2022-11-10T03:13:02.956Z,0.00
2022-11-10T03:14:03.013Z,0.00
2022-11-10T03:15:02.734Z,0.00
2022-11-10T03:16:03.018Z,0.00
2022-11-10T03:17:03.509Z,0.00
2022-11-10T03:18:03.005Z,0.00
2022-11-10T03:19:03.439Z,0.00
2022-11-10T03:20:03.497Z,0.00
2022-11-10T03:21:03.303Z,0.00
2022-11-10T03:22:03.352Z,0.00
2022-11-10T03:23:03.207Z,0.00
2022-11-10T03:24:03.213Z,0.00
2022-11-10T03:25:03.833Z,0.00
2022-11-10T03:26:03.508Z,0.00
2022-11-10T03:27:02.984Z,0.00
2022-11-10T03:28:02.876Z,0.00
2022-11-10T03:29:02.901Z,0.00
2022-11-10T03:30:02.652Z,0.00
2022-11-10T03:31:02.715Z,0.00
2022-11-10T03:32:02.591Z,0.00
2022-11-10T03:33:03.005Z,0.00
2022-11-10T03:34:02.858Z,0.00
2022-11-10T03:35:03.118Z,0.00
2022-11-10T03:36:02.803Z,0.00
2022-11-10T03:37:03.200Z,0.00
2022-11-10T03:38:03.322Z,0.00
2022-11-10T03:39:03.589Z,0.00
2022-11-10T03:40:03.467Z,0.00
2022-11-10T03:41:18.613Z,0.00
2022-11-10T03:42:02.888Z,0.00
2022-11-10T03:43:03.355Z,0.00
2022-11-10T03:44:03.197Z,0.00
2022-11-10T03:45:03.069Z,0.00
2022-11-10T03:46:02.859Z,0.00
2022-11-10T03:47:03.610Z,0.00
2022-11-10T03:48:03.546Z,0.00
2022-11-10T03:49:03.495Z,0.00
2022-11-10T03:50:03.336Z,0.00
2022-11-10T03:51:03.702Z,0.00
2022-11-10T03:52:02.816Z,0.00
2022-11-10T03:53:02.688Z,0.00
2022-11-10T03:54:02.750Z,0.00
2022-11-10T03:55:03.683Z,0.00
2022-11-10T03:56:02.475Z,0.00
2022-11-10T03:57:03.024Z,0.00
2022-11-10T03:58:03.493Z,0.00
2022-11-10T03:59:02.977Z,0.00
2022-11-10T04:00:03.283Z,0.00
2022-11-10T04:01:03.007Z,0.00
2022-11-10T04:02:02.785Z,0.00
2022-11-10T04:03:02.516Z,0.00
2022-11-10T04:04:02.530Z,0.00
2022-11-10T04:05:02.811Z,0.00
2022-11-10T04:06:02.728Z,0.00
2022-11-10T04:07:02.971Z,0.00
2022-11-10T04:08:03.163Z,0.00
2022-11-10T04:09:02.694Z,0.00
2022-11-10T04:10:02.659Z,0.00
2022-11-10T04:11:03.113Z,0.00
2022-11-10T04:12:03.249Z,0.00
2022-11-10T04:13:03.264Z,0.00
2022-11-10T04:14:03.370Z,0.00
2022-11-10T04:15:02.829Z,0.00
2022-11-10T04:16:02.727Z,0.00
2022-11-10T04:17:02.616Z,0.00
2022-11-10T04:18:02.112Z,0.00
2022-11-10T04:19:02.700Z,0.00
2022-11-10T04:20:02.110Z,0.00
2022-11-10T04:21:02.220Z,0.00
2022-11-10T04:22:03.409Z,0.00
2022-11-10T04:23:02.612Z,0.00
2022-11-10T04:24:02.691Z,0.00
2022-11-10T04:25:02.561Z,0.00
2022-11-10T04:26:03.168Z,0.00
2022-11-10T04:27:02.882Z,0.00
2022-11-10T04:28:03.128Z,0.00
2022-11-10T04:29:03.407Z,0.00
2022-11-10T04:30:03.169Z,0.00
2022-11-10T04:31:03.003Z,0.00
2022-11-10T04:32:02.891Z,0.00
2022-11-10T04:33:02.579Z,0.00
2022-11-10T04:34:02.389Z,0.00
2022-11-10T04:35:02.432Z,0.00
2022-11-10T04:36:02.323Z,0.00
2022-11-10T04:37:03.026Z,0.00
2022-11-10T04:38:02.635Z,0.00
2022-11-10T04:39:03.027Z,0.00
2022-11-10T04:40:02.630Z,0.00
2022-11-10T04:41:03.189Z,0.00
2022-11-10T04:42:03.163Z,0.00
2022-11-10T04:43:03.245Z,0.00
2022-11-10T04:44:03.354Z,0.00
2022-11-10T04:45:02.970Z,0.00
2022-11-10T04:46:02.861Z,0.00
2022-11-10T04:47:03.880Z,0.00
2022-11-10T04:48:02.441Z,0.00
2022-11-10T04:49:02.262Z,0.00
2022-11-10T04:50:02.114Z,0.00
2022-11-10T04:51:02.328Z,0.00
2022-11-10T04:52:03.075Z,0.00
2022-11-10T04:53:03.167Z,0.00
2022-11-10T04:54:02.686Z,0.00
2022-11-10T04:55:02.971Z,0.00
2022-11-10T04:56:03.125Z,0.00
2022-11-10T04:57:03.375Z,0.00
2022-11-10T04:58:03.286Z,0.00
2022-11-10T04:59:03.218Z,0.00
2022-11-10T05:00:03.173Z,0.00
2022-11-10T05:01:03.333Z,0.00
2022-11-10T05:02:02.571Z,0.00
2022-11-10T05:03:02.428Z,0.00
2022-11-10T05:04:02.315Z,0.00
2022-11-10T05:05:02.190Z,0.00
2022-11-10T05:06:02.646Z,0.00
2022-11-10T05:07:03.330Z,0.00
2022-11-10T05:08:03.442Z,0.00
2022-11-10T05:09:02.986Z,0.00
2022-11-10T05:10:03.302Z,0.00
2022-11-10T05:11:03.041Z,0.00
2022-11-10T05:12:02.633Z,0.00
2022-11-10T05:13:02.271Z,0.00
2022-11-10T05:14:02.302Z,0.00
2022-11-10T05:15:02.156Z,0.00
2022-11-10T05:16:01.968Z,0.00
2022-11-10T05:17:02.760Z,0.00
2022-11-10T05:18:02.309Z,0.00
2022-11-10T05:19:02.843Z,0.00
2022-11-10T05:20:02.525Z,0.00
2022-11-10T05:21:02.870Z,0.00
2022-11-10T05:22:02.834Z,0.00
2022-11-10T05:23:03.355Z,0.00
2022-11-10T05:24:02.872Z,0.00
2022-11-10T05:25:02.677Z,0.00
2022-11-10T05:26:02.932Z,0.00
2022-11-10T05:27:02.292Z,0.00
2022-11-10T05:28:02.528Z,0.00
2022-11-10T05:29:02.007Z,0.00
2022-11-10T05:30:02.090Z,0.00
2022-11-10T05:31:02.533Z,0.00
2022-11-10T05:32:02.361Z,0.00
2022-11-10T05:33:02.292Z,0.00
2022-11-10T05:34:02.909Z,0.00
2022-11-10T05:35:02.350Z,0.00
2022-11-10T05:36:02.293Z,0.00
2022-11-10T05:37:03.323Z,0.00
2022-11-10T05:38:02.870Z,0.00
2022-11-10T05:39:02.857Z,0.00
2022-11-10T05:40:02.748Z,0.00
2022-11-10T05:41:03.431Z,0.00
2022-11-10T05:42:02.862Z,0.00
2022-11-10T05:43:03.274Z,0.00
2022-11-10T05:44:03.415Z,0.00
2022-11-10T05:45:03.387Z,0.00
2022-11-10T05:46:03.051Z,0.00
2022-11-10T05:47:02.947Z,0.00
2022-11-10T05:48:02.280Z,0.00
2022-11-10T05:49:02.764Z,0.00
2022-11-10T05:50:02.344Z,0.00
2022-11-10T05:51:02.926Z,0.00
2022-11-10T05:52:02.882Z,0.00
2022-11-10T05:53:02.591Z,0.00
2022-11-10T05:54:02.627Z,0.00
2022-11-10T05:55:02.830Z,0.00
2022-11-10T05:56:02.611Z,0.00
2022-11-10T05:57:02.792Z,0.00
2022-11-10T05:58:02.948Z,0.00
2022-11-10T05:59:03.367Z,0.00
2022-11-10T06:00:03.072Z,0.00
2022-11-10T06:01:02.668Z,0.00
2022-11-10T06:02:02.660Z,0.00
2022-11-10T06:03:03.213Z,0.00
2022-11-10T06:04:03.407Z,0.00
2022-11-10T06:05:03.322Z,0.00
2022-11-10T06:06:02.959Z,4.00
2022-11-10T06:07:02.990Z,4.00
2022-11-10T06:08:03.524Z,0.00
2022-11-10T06:09:03.366Z,4.00
2022-11-10T06:10:03.044Z,4.00
2022-11-10T06:11:03.333Z,4.00
2022-11-10T06:12:03.512Z,8.00
2022-11-10T06:13:03.353Z,8.00
2022-11-10T06:14:03.667Z,8.00
2022-11-10T06:15:03.467Z,8.00
2022-11-10T06:16:03.172Z,8.00
2022-11-10T06:17:02.996Z,16.00
2022-11-10T06:18:02.533Z,16.00
2022-11-10T06:19:02.866Z,20.00
2022-11-10T06:20:02.753Z,24.00
2022-11-10T06:21:02.817Z,24.00
2022-11-10T06:22:07.507Z,32.00
2022-11-10T06:23:03.065Z,36.00
2022-11-10T06:24:02.882Z,40.00
2022-11-10T06:25:03.208Z,48.00
2022-11-10T06:26:02.976Z,52.00
2022-11-10T06:27:02.528Z,64.00
2022-11-10T06:28:02.750Z,68.00
2022-11-10T06:29:02.972Z,84.00
2022-11-10T06:30:02.605Z,92.00
2022-11-10T06:31:02.960Z,104.00
2022-11-10T06:32:02.863Z,120.00
2022-11-10T06:33:03.330Z,128.00
2022-11-10T06:34:03.014Z,144.00
2022-11-10T06:35:02.828Z,160.00
2022-11-10T06:36:03.159Z,176.00
2022-11-10T06:37:03.572Z,192.00
2022-11-10T06:38:03.014Z,208.00
2022-11-10T06:39:03.476Z,228.00
2022-11-10T06:40:03.635Z,248.00
2022-11-10T06:41:03.539Z,264.00
2022-11-10T06:42:03.225Z,288.00
2022-11-10T06:43:03.626Z,304.00
2022-11-10T06:44:03.704Z,324.00
2022-11-10T06:45:03.306Z,344.00
2022-11-10T06:46:03.535Z,368.00
2022-11-10T06:47:02.688Z,392.00
2022-11-10T06:48:03.018Z,416.00
2022-11-10T06:49:02.929Z,440.00
2022-11-10T06:50:02.880Z,464.00
2022-11-10T06:51:02.921Z,500.00
2022-11-10T06:52:03.284Z,536.00
2022-11-10T06:53:03.162Z,576.00
2022-11-10T06:54:02.880Z,608.00
2022-11-10T06:55:02.967Z,644.00
2022-11-10T06:56:03.364Z,676.00
2022-11-10T06:57:03.724Z,708.00
2022-11-10T06:58:03.757Z,736.00
2022-11-10T06:59:03.329Z,768.00
2022-11-10T07:00:03.640Z,804.00
2022-11-10T07:01:03.675Z,828.00
2022-11-10T07:02:02.922Z,856.00
2022-11-10T07:03:02.760Z,888.00
2022-11-10T07:04:19.312Z,920.00
2022-11-10T07:05:02.995Z,952.00
2022-11-10T07:06:03.034Z,988.00
2022-11-10T07:07:03.454Z,1032.00
2022-11-10T07:08:03.168Z,1072.00
2022-11-10T07:09:03.221Z,1104.00
2022-11-10T07:10:06.987Z,1156.00
2022-11-10T07:11:03.403Z,1232.00
2022-11-10T07:12:03.466Z,1280.00
2022-11-10T07:13:03.171Z,1332.00
2022-11-10T07:14:03.335Z,1368.00
2022-11-10T07:15:03.411Z,1364.00
2022-11-10T07:16:03.634Z,1348.00
2022-11-10T07:17:03.469Z,1336.00
2022-11-10T07:18:03.744Z,1312.00
2022-11-10T07:19:03.423Z,1312.00
2022-11-10T07:20:03.648Z,1324.00
2022-11-10T07:21:03.878Z,1340.00
2022-11-10T07:22:08.013Z,1360.00
2022-11-10T07:23:02.914Z,1364.00
2022-11-10T07:24:02.572Z,1376.00
2022-11-10T07:25:02.440Z,1412.00
2022-11-10T07:26:02.402Z,1444.00
2022-11-10T07:27:03.236Z,1480.00
2022-11-10T07:28:02.862Z,1516.00
2022-11-10T07:29:02.960Z,1552.00
2022-11-10T07:30:03.092Z,1580.00
2022-11-10T07:31:02.917Z,1592.00
2022-11-10T07:32:02.863Z,1568.00
2022-11-10T07:33:02.658Z,1580.00
2022-11-10T07:34:02.801Z,1636.00
2022-11-10T07:35:02.701Z,1680.00
2022-11-10T07:36:02.725Z,1768.00
2022-11-10T07:37:03.407Z,1908.00
2022-11-10T07:38:03.366Z,2004.00
2022-11-10T07:39:03.583Z,2064.00
2022-11-10T07:40:03.038Z,2096.00
2022-11-10T07:41:03.015Z,2112.00
2022-11-10T07:42:02.916Z,2148.00
2022-11-10T07:43:02.588Z,2188.00
2022-11-10T07:44:02.747Z,2172.00
2022-11-10T07:45:02.811Z,2144.00
2022-11-10T07:46:02.825Z,2140.00
2022-11-10T07:47:02.687Z,2100.00
2022-11-10T07:48:02.821Z,2048.00
2022-11-10T07:49:02.709Z,2012.00
2022-11-10T07:50:03.146Z,2068.00
2022-11-10T07:51:02.856Z,2172.00
2022-11-10T07:52:03.813Z,2212.00
2022-11-10T07:53:03.925Z,2228.00
2022-11-10T07:54:03.770Z,2244.00
2022-11-10T07:55:03.592Z,2312.00
2022-11-10T07:56:03.917Z,2408.00
2022-11-10T07:57:02.852Z,2420.00
2022-11-10T07:58:03.255Z,2344.00
2022-11-10T07:59:02.915Z,2320.00
2022-11-10T08:00:03.244Z,2256.00
2022-11-10T08:01:03.419Z,2220.00
2022-11-10T08:02:02.720Z,2220.00
2022-11-10T08:03:02.780Z,2240.00
2022-11-10T08:04:02.804Z,2256.00
2022-11-10T08:05:02.355Z,2272.00
2022-11-10T08:06:02.935Z,2312.00
2022-11-10T08:07:02.372Z,2340.00
2022-11-10T08:08:02.083Z,2396.00
2022-11-10T08:09:02.263Z,2516.00
2022-11-10T08:10:02.171Z,2512.00
2022-11-10T08:11:02.221Z,2564.00
2022-11-10T08:12:02.511Z,2672.00
2022-11-10T08:13:02.553Z,2688.00
2022-11-10T08:14:02.850Z,2784.00
2022-11-10T08:15:02.643Z,2928.00
2022-11-10T08:16:02.422Z,3056.00
2022-11-10T08:17:03.153Z,3020.00
2022-11-10T08:18:02.980Z,2924.00
2022-11-10T08:19:02.834Z,2856.00
2022-11-10T08:20:02.820Z,2756.00
2022-11-10T08:21:02.717Z,2760.00
2022-11-10T08:22:03.007Z,2832.00
2022-11-10T08:23:02.959Z,2920.00
2022-11-10T08:24:03.028Z,2972.00
2022-11-10T08:25:02.937Z,2928.00
2022-11-10T08:26:02.781Z,2844.00
2022-11-10T08:27:02.539Z,2780.00
2022-11-10T08:28:02.190Z,2748.00
2022-11-10T08:29:02.340Z,2728.00
2022-11-10T08:30:02.657Z,2708.00
2022-11-10T08:31:05.551Z,2708.00
2022-11-10T08:32:02.723Z,2708.00
2022-11-10T08:33:02.565Z,2744.00
2022-11-10T08:34:02.670Z,2748.00
2022-11-10T08:35:02.245Z,2776.00
2022-11-10T08:36:02.184Z,2740.00
2022-11-10T08:37:03.167Z,3004.00
2022-11-10T08:38:08.077Z,3508.00
2022-11-10T08:39:02.808Z,4272.00
2022-11-10T08:40:03.223Z,5200.00
2022-11-10T08:41:02.800Z,5700.00
2022-11-10T08:42:02.203Z,6112.00
2022-11-10T08:43:02.605Z,4532.00
2022-11-10T08:44:02.138Z,4852.00
2022-11-10T08:45:02.171Z,3776.00
2022-11-10T08:46:02.288Z,3636.00
2022-11-10T08:47:02.788Z,3676.00
2022-11-10T08:48:02.546Z,3472.00
2022-11-10T08:49:02.219Z,3888.00
2022-11-10T08:50:02.237Z,3704.00
2022-11-10T08:51:02.252Z,3764.00
2022-11-10T08:52:02.725Z,3448.00
2022-11-10T08:53:02.849Z,3676.00
2022-11-10T08:54:02.985Z,4284.00
2022-11-10T08:55:03.033Z,4500.00
2022-11-10T08:56:03.086Z,4448.00
2022-11-10T08:57:02.204Z,5304.00
2022-11-10T08:58:02.758Z,6020.00
2022-11-10T08:59:02.678Z,4736.00
2022-11-10T09:00:02.298Z,4712.00
2022-11-10T09:01:02.326Z,4696.00
2022-11-10T09:02:02.812Z,3540.00
2022-11-10T09:03:02.845Z,3496.00
2022-11-10T09:04:03.408Z,3648.00
2022-11-10T09:05:02.908Z,3572.00
2022-11-10T09:06:03.338Z,3632.00
2022-11-10T09:07:03.672Z,3516.00
2022-11-10T09:08:03.549Z,3488.00
2022-11-10T09:09:03.111Z,3452.00
2022-11-10T09:10:07.345Z,3644.00
2022-11-10T09:11:03.355Z,3724.00
2022-11-10T09:12:02.629Z,3596.00
2022-11-10T09:13:03.120Z,3704.00
2022-11-10T09:14:02.785Z,3740.00
2022-11-10T09:15:02.755Z,3752.00
2022-11-10T09:16:02.955Z,4496.00
2022-11-10T09:17:03.165Z,4900.00
2022-11-10T09:18:03.041Z,5640.00
2022-11-10T09:19:02.992Z,9064.00
2022-11-10T09:20:03.136Z,6248.00
2022-11-10T09:21:03.076Z,11328.00
2022-11-10T09:22:02.461Z,4700.00
2022-11-10T09:23:02.727Z,8184.00
2022-11-10T09:24:02.797Z,6612.00
2022-11-10T09:25:02.841Z,5544.00
2022-11-10T09:26:02.487Z,6332.00
2022-11-10T09:27:03.207Z,5848.00
2022-11-10T09:28:02.629Z,6512.00
2022-11-10T09:29:03.120Z,4928.00
2022-11-10T09:30:02.718Z,5520.00
2022-11-10T09:31:02.855Z,4980.00
2022-11-10T09:32:03.356Z,4948.00
2022-11-10T09:33:03.146Z,4928.00
2022-11-10T09:34:03.161Z,4692.00
2022-11-10T09:35:03.225Z,4940.00
2022-11-10T09:36:03.098Z,4968.00
2022-11-10T09:37:03.375Z,5204.00
2022-11-10T09:38:03.617Z,5248.00
2022-11-10T09:39:03.120Z,5356.00
2022-11-10T09:40:03.266Z,5576.00
2022-11-10T09:41:03.122Z,5424.00
2022-11-10T09:42:02.366Z,4960.00
2022-11-10T09:43:02.380Z,3716.00
2022-11-10T09:44:02.591Z,3836.00
2022-11-10T09:45:02.348Z,3820.00
2022-11-10T09:46:02.802Z,3856.00
2022-11-10T09:47:02.985Z,3840.00
2022-11-10T09:48:02.900Z,3872.00
2022-11-10T09:49:02.891Z,3856.00
2022-11-10T09:50:02.822Z,4076.00
2022-11-10T09:51:03.353Z,4608.00
2022-11-10T09:52:02.394Z,4952.00
2022-11-10T09:53:02.492Z,5784.00
2022-11-10T09:54:02.644Z,7920.00
2022-11-10T09:55:02.749Z,6952.00
2022-11-10T09:56:02.216Z,7304.00
2022-11-10T09:57:02.501Z,7856.00
2022-11-10T09:58:02.453Z,3328.00
2022-11-10T09:59:02.719Z,5228.00
2022-11-10T10:00:02.652Z,5616.00
2022-11-10T10:01:02.729Z,5964.00
2022-11-10T10:02:02.529Z,3708.00
2022-11-10T10:03:02.371Z,3412.00
2022-11-10T10:04:02.604Z,3484.00
2022-11-10T10:05:02.509Z,3296.00
2022-11-10T10:06:02.526Z,3184.00
2022-11-10T10:07:11.213Z,3164.00
2022-11-10T10:08:02.204Z,3168.00
2022-11-10T10:09:02.442Z,3220.00
2022-11-10T10:10:02.494Z,3684.00
2022-11-10T10:11:02.297Z,3456.00
2022-11-10T10:12:02.177Z,3808.00
2022-11-10T10:13:01.980Z,3872.00
2022-11-10T10:14:02.348Z,9688.00
2022-11-10T10:15:02.276Z,4580.00
2022-11-10T10:16:02.555Z,8764.00
2022-11-10T10:17:02.450Z,5876.00
2022-11-10T10:18:02.576Z,10240.00
2022-11-10T10:19:02.271Z,9272.00
2022-11-10T10:20:02.241Z,11040.00
2022-11-10T10:21:02.509Z,11128.00
2022-11-10T10:22:02.533Z,10920.00
2022-11-10T10:23:02.000Z,10856.00
2022-11-10T10:24:12.679Z,11276.00
2022-11-10T10:25:01.810Z,11216.00
2022-11-10T10:26:02.331Z,11044.00
2022-11-10T10:27:01.874Z,11176.00
2022-11-10T10:28:01.779Z,10964.00
2022-11-10T10:29:01.851Z,11116.00
2022-11-10T10:30:01.828Z,11192.00
2022-11-10T10:31:01.870Z,11420.00
2022-11-10T10:32:02.320Z,11300.00
2022-11-10T10:33:02.267Z,11260.00
2022-11-10T10:34:02.117Z,11028.00
2022-11-10T10:35:01.927Z,10452.00
2022-11-10T10:36:02.162Z,9944.00
2022-11-10T10:37:01.975Z,9736.00
2022-11-10T10:38:01.719Z,10484.00
2022-11-10T10:39:01.799Z,10984.00
2022-11-10T10:40:01.688Z,11128.00
2022-11-10T10:41:01.518Z,11052.00
2022-11-10T10:42:02.396Z,11140.00
2022-11-10T10:43:02.145Z,11084.00
2022-11-10T10:44:02.361Z,11396.00
2022-11-10T10:45:02.621Z,11008.00
2022-11-10T10:46:02.039Z,10280.00
2022-11-10T10:47:02.803Z,9532.00
2022-11-10T10:48:02.348Z,10812.00
2022-11-10T10:49:26.740Z,10572.00
2022-11-10T10:50:02.905Z,8140.00
2022-11-10T10:51:02.664Z,11544.00
2022-11-10T10:52:02.105Z,10336.00
2022-11-10T10:53:02.062Z,5916.00
2022-11-10T10:54:01.983Z,8984.00
2022-11-10T10:55:02.187Z,13120.00
2022-11-10T10:56:02.172Z,8892.00
2022-11-10T10:57:02.302Z,9220.00
2022-11-10T10:58:01.883Z,8860.00
2022-11-10T10:59:02.199Z,8964.00
2022-11-10T11:00:01.870Z,8908.00
2022-11-10T11:01:02.269Z,8920.00
2022-11-10T11:02:02.417Z,3508.00
2022-11-10T11:03:04.586Z,11532.00
2022-11-10T11:04:02.278Z,10596.00
2022-11-10T11:05:01.939Z,11488.00
2022-11-10T11:06:02.447Z,11172.00
2022-11-10T11:07:02.507Z,11428.00
2022-11-10T11:08:02.528Z,11348.00
2022-11-10T11:09:02.134Z,11068.00
2022-11-10T11:10:02.239Z,9448.00
2022-11-10T11:11:02.591Z,9336.00
2022-11-10T11:12:03.104Z,9320.00
2022-11-10T11:13:02.552Z,9964.00
2022-11-10T11:14:02.780Z,4932.00
2022-11-10T11:15:03.192Z,4876.00
2022-11-10T11:16:02.967Z,4564.00
2022-11-10T11:17:03.301Z,4452.00
2022-11-10T11:18:02.854Z,4124.00
2022-11-10T11:19:03.229Z,2852.00
2022-11-10T11:20:02.712Z,3260.00
2022-11-10T11:21:02.734Z,3336.00
2022-11-10T11:22:02.581Z,3300.00
2022-11-10T11:23:02.210Z,3192.00
2022-11-10T11:24:02.429Z,3188.00
2022-11-10T11:25:02.634Z,3212.00
2022-11-10T11:26:02.155Z,3276.00
2022-11-10T11:27:02.963Z,3000.00
2022-11-10T11:28:02.646Z,2868.00
2022-11-10T11:29:02.991Z,3564.00
2022-11-10T11:30:02.965Z,3944.00
2022-11-10T11:31:02.489Z,5024.00
2022-11-10T11:32:03.126Z,4740.00
2022-11-10T11:33:02.607Z,5964.00
2022-11-10T11:34:02.738Z,5548.00
2022-11-10T11:35:02.840Z,5304.00
2022-11-10T11:36:02.590Z,6204.00
2022-11-10T11:37:08.414Z,7384.00
2022-11-10T11:38:02.235Z,9396.00
2022-11-10T11:39:01.917Z,10432.00
2022-11-10T11:40:02.081Z,10324.00
2022-11-10T11:41:02.048Z,10828.00
2022-11-10T11:42:02.960Z,9580.00
2022-11-10T11:43:02.553Z,10904.00
2022-11-10T11:44:02.688Z,10560.00
2022-11-10T11:45:02.580Z,10516.00
2022-11-10T11:46:02.709Z,10220.00
2022-11-10T11:47:03.181Z,10024.00
2022-11-10T11:48:02.582Z,8376.00
2022-11-10T11:49:03.042Z,4972.00
2022-11-10T11:50:02.685Z,5972.00
2022-11-10T11:51:02.985Z,6032.00
2022-11-10T11:52:01.861Z,5528.00
2022-11-10T11:53:02.059Z,5728.00
2022-11-10T11:54:02.329Z,4668.00
2022-11-10T11:55:02.070Z,4544.00
2022-11-10T11:56:01.948Z,5572.00
2022-11-10T11:57:02.075Z,4408.00
2022-11-10T11:58:02.227Z,6372.00
2022-11-10T11:59:02.478Z,4748.00
2022-11-10T12:00:02.561Z,3816.00
2022-11-10T12:01:02.463Z,4408.00
2022-11-10T12:02:02.818Z,3976.00
2022-11-10T12:03:03.051Z,2984.00
2022-11-10T12:04:03.049Z,3200.00
2022-11-10T12:05:02.729Z,4172.00
2022-11-10T12:06:03.187Z,3568.00
2022-11-10T12:07:03.283Z,3616.00
2022-11-10T12:08:03.175Z,3376.00
2022-11-10T12:09:03.247Z,3676.00
2022-11-10T12:10:03.221Z,3084.00
2022-11-10T12:11:03.387Z,3340.00
2022-11-10T12:12:03.783Z,3248.00
2022-11-10T12:13:02.897Z,3252.00
2022-11-10T12:14:03.157Z,2984.00
2022-11-10T12:15:03.170Z,3000.00
2022-11-10T12:16:02.967Z,3020.00
2022-11-10T12:17:02.968Z,2900.00
2022-11-10T12:18:03.771Z,2988.00
2022-11-10T12:19:03.606Z,2808.00
2022-11-10T12:20:03.649Z,2800.00
2022-11-10T12:21:03.997Z,2792.00
2022-11-10T12:22:03.641Z,2720.00
2022-11-10T12:23:03.315Z,2828.00
2022-11-10T12:24:08.852Z,2740.00
2022-11-10T12:25:02.965Z,2552.00
2022-11-10T12:26:03.101Z,2588.00
2022-11-10T12:27:03.063Z,2808.00
2022-11-10T12:28:03.042Z,2800.00
2022-11-10T12:29:03.076Z,2696.00
2022-11-10T12:30:02.513Z,2784.00
2022-11-10T12:31:02.942Z,2808.00
2022-11-10T12:32:02.487Z,2836.00
2022-11-10T12:33:03.182Z,2844.00
2022-11-10T12:34:03.046Z,2764.00
2022-11-10T12:35:03.296Z,2760.00
2022-11-10T12:36:03.075Z,3632.00
2022-11-10T12:37:03.172Z,3628.00
2022-11-10T12:38:03.142Z,3408.00
2022-11-10T12:39:02.539Z,3388.00
2022-11-10T12:40:02.860Z,3380.00